sensor_id;sensor_type;location;lat;lon;timestamp;temperature;humidity
21778;DHT22;11050;52.222;20.916;2022-11-20T00:01:07;-3.70;99.90
21778;DHT22;11050;52.222;20.916;2022-11-20T00:03:35;-3.70;99.90
21778;DHT22;11050;52.222;20.916;2022-11-20T00:06:02;-3.80;99.90
21778;DHT22;11050;52.222;20.916;2022-11-20T00:08:30;-3.80;99.90
21778;DHT22;11050;52.222;20.916;2022-11-20T00:10:56;-3.90;99.90
21778;DHT22;11050;52.222;20.916;2022-11-20T00:13:22;-3.90;99.90
21778;DHT22;11050;52.222;20.916;2022-11-20T00:15:48;-3.90;99.90
21778;DHT22;11050;52.222;20.916;2022-11-20T00:18:14;-4.00;99.90
21778;DHT22;11050;52.222;20.916;2022-11-20T00:20:39;-4.00;99.90
21778;DHT22;11050;52.222;20.916;2022-11-20T00:23:05;-4.00;99.90
21778;DHT22;11050;52.222;20.916;2022-11-20T00:25:34;-4.00;99.90
21778;DHT22;11050;52.222;20.916;2022-11-20T00:28:00;-3.90;99.90
21778;DHT22;11050;52.222;20.916;2022-11-20T00:30:26;-3.90;99.90
21778;DHT22;11050;52.222;20.916;2022-11-20T00:32:52;-3.80;99.90
21778;DHT22;11050;52.222;20.916;2022-11-20T00:35:17;-3.80;99.90
21778;DHT22;11050;52.222;20.916;2022-11-20T00:37:43;-3.80;99.90
21778;DHT22;11050;52.222;20.916;2022-11-20T00:40:09;-3.80;99.90
21778;DHT22;11050;52.222;20.916;2022-11-20T00:42:35;-3.70;99.90
21778;DHT22;11050;52.222;20.916;2022-11-20T00:45:01;-3.70;99.90
21778;DHT22;11050;52.222;20.916;2022-11-20T00:47:27;-3.70;99.90
21778;DHT22;11050;52.222;20.916;2022-11-20T00:49:52;-3.70;99.90
21778;DHT22;11050;52.222;20.916;2022-11-20T00:52:18;-3.60;99.90
21778;DHT22;11050;52.222;20.916;2022-11-20T00:54:43;-3.60;99.90
21778;DHT22;11050;52.222;20.916;2022-11-20T00:57:09;-3.60;99.90
21778;DHT22;11050;52.222;20.916;2022-11-20T00:59:35;-3.60;99.90
21778;DHT22;11050;52.222;20.916;2022-11-20T01:02:00;-3.50;99.90
21778;DHT22;11050;52.222;20.916;2022-11-20T01:04:26;-3.50;99.90
21778;DHT22;11050;52.222;20.916;2022-11-20T01:06:52;-3.50;99.90
21778;DHT22;11050;52.222;20.916;2022-11-20T01:09:18;-3.50;99.90
21778;DHT22;11050;52.222;20.916;2022-11-20T01:11:44;-3.50;99.90
21778;DHT22;11050;52.222;20.916;2022-11-20T01:14:13;-3.50;99.90
21778;DHT22;11050;52.222;20.916;2022-11-20T01:16:44;-3.50;99.90
21778;DHT22;11050;52.222;20.916;2022-11-20T01:19:20;-3.50;99.90
21778;DHT22;11050;52.222;20.916;2022-11-20T01:21:50;-3.50;99.90
21778;DHT22;11050;52.222;20.916;2022-11-20T01:24:19;-3.50;99.90
21778;DHT22;11050;52.222;20.916;2022-11-20T01:26:54;-3.50;99.90
21778;DHT22;11050;52.222;20.916;2022-11-20T01:29:22;-3.40;99.90
21778;DHT22;11050;52.222;20.916;2022-11-20T01:31:49;-3.50;99.90
21778;DHT22;11050;52.222;20.916;2022-11-20T01:34:18;-3.50;99.90
21778;DHT22;11050;52.222;20.916;2022-11-20T01:36:45;-3.50;99.90
21778;DHT22;11050;52.222;20.916;2022-11-20T01:39:20;-3.40;99.90
21778;DHT22;11050;52.222;20.916;2022-11-20T01:41:48;-3.40;99.90
21778;DHT22;11050;52.222;20.916;2022-11-20T01:44:57;-3.40;99.90
21778;DHT22;11050;52.222;20.916;2022-11-20T01:47:48;-3.40;99.90
21778;DHT22;11050;52.222;20.916;2022-11-20T01:50:21;-3.40;99.90
21778;DHT22;11050;52.222;20.916;2022-11-20T01:52:56;-3.40;99.90
21778;DHT22;11050;52.222;20.916;2022-11-20T01:55:31;-3.40;99.90
21778;DHT22;11050;52.222;20.916;2022-11-20T01:58:01;-3.40;99.90
21778;DHT22;11050;52.222;20.916;2022-11-20T02:00:29;-3.40;99.90
21778;DHT22;11050;52.222;20.916;2022-11-20T02:02:58;-3.40;99.90
21778;DHT22;11050;52.222;20.916;2022-11-20T02:08:29;-3.40;99.90
21778;DHT22;11050;52.222;20.916;2022-11-20T02:10:56;-3.50;99.90
21778;DHT22;11050;52.222;20.916;2022-11-20T02:13:22;-3.50;99.90
21778;DHT22;11050;52.222;20.916;2022-11-20T02:16:30;-3.50;99.90
21778;DHT22;11050;52.222;20.916;2022-11-20T02:19:34;-3.50;99.90
21778;DHT22;11050;52.222;20.916;2022-11-20T02:22:12;-3.50;99.90
21778;DHT22;11050;52.222;20.916;2022-11-20T02:24:44;-3.50;99.90
21778;DHT22;11050;52.222;20.916;2022-11-20T02:27:13;-3.50;99.90
21778;DHT22;11050;52.222;20.916;2022-11-20T02:29:55;-3.50;99.90
21778;DHT22;11050;52.222;20.916;2022-11-20T02:32:30;-3.60;99.90
21778;DHT22;11050;52.222;20.916;2022-11-20T02:35:05;-3.60;99.90
21778;DHT22;11050;52.222;20.916;2022-11-20T02:37:38;-3.60;99.90
21778;DHT22;11050;52.222;20.916;2022-11-20T02:40:06;-3.60;99.90
21778;DHT22;11050;52.222;20.916;2022-11-20T02:42:32;-3.60;99.90
21778;DHT22;11050;52.222;20.916;2022-11-20T02:44:58;-3.60;99.90
21778;DHT22;11050;52.222;20.916;2022-11-20T02:47:25;-3.60;99.90
21778;DHT22;11050;52.222;20.916;2022-11-20T02:49:51;-3.60;99.90
21778;DHT22;11050;52.222;20.916;2022-11-20T02:52:17;-3.60;99.90
21778;DHT22;11050;52.222;20.916;2022-11-20T02:54:43;-3.60;99.90
21778;DHT22;11050;52.222;20.916;2022-11-20T02:57:08;-3.60;99.90
21778;DHT22;11050;52.222;20.916;2022-11-20T02:59:34;-3.70;99.90
21778;DHT22;11050;52.222;20.916;2022-11-20T03:02:00;-3.70;99.90
21778;DHT22;11050;52.222;20.916;2022-11-20T03:04:26;-3.70;99.90
21778;DHT22;11050;52.222;20.916;2022-11-20T03:06:51;-3.80;99.90
21778;DHT22;11050;52.222;20.916;2022-11-20T03:09:17;-3.80;99.90
21778;DHT22;11050;52.222;20.916;2022-11-20T03:11:43;-3.80;99.90
21778;DHT22;11050;52.222;20.916;2022-11-20T03:14:09;-3.90;99.90
21778;DHT22;11050;52.222;20.916;2022-11-20T03:16:34;-3.90;99.90
21778;DHT22;11050;52.222;20.916;2022-11-20T03:19:00;-3.90;99.90
21778;DHT22;11050;52.222;20.916;2022-11-20T03:21:26;-3.90;99.90
21778;DHT22;11050;52.222;20.916;2022-11-20T03:23:54;-3.90;99.90
21778;DHT22;11050;52.222;20.916;2022-11-20T03:26:23;-3.90;99.90
21778;DHT22;11050;52.222;20.916;2022-11-20T03:28:53;-3.90;99.90
21778;DHT22;11050;52.222;20.916;2022-11-20T03:31:25;-3.90;99.90
21778;DHT22;11050;52.222;20.916;2022-11-20T03:33:53;-3.90;99.90
21778;DHT22;11050;52.222;20.916;2022-11-20T03:36:20;-3.90;99.90
21778;DHT22;11050;52.222;20.916;2022-11-20T03:38:46;-4.00;99.90
21778;DHT22;11050;52.222;20.916;2022-11-20T03:41:19;-3.90;99.90
21778;DHT22;11050;52.222;20.916;2022-11-20T03:43:55;-4.00;99.90
21778;DHT22;11050;52.222;20.916;2022-11-20T03:46:26;-4.00;99.90
21778;DHT22;11050;52.222;20.916;2022-11-20T03:48:52;-4.00;99.90
21778;DHT22;11050;52.222;20.916;2022-11-20T03:51:25;-4.00;99.90
21778;DHT22;11050;52.222;20.916;2022-11-20T03:53:55;-4.10;99.90
21778;DHT22;11050;52.222;20.916;2022-11-20T03:56:24;-4.10;99.90
21778;DHT22;11050;52.222;20.916;2022-11-20T03:58:52;-4.10;99.90
21778;DHT22;11050;52.222;20.916;2022-11-20T04:01:21;-4.10;99.90
21778;DHT22;11050;52.222;20.916;2022-11-20T04:03:49;-4.20;99.90
21778;DHT22;11050;52.222;20.916;2022-11-20T04:06:22;-4.20;99.90
21778;DHT22;11050;52.222;20.916;2022-11-20T04:08:50;-4.20;99.90
21778;DHT22;11050;52.222;20.916;2022-11-20T04:11:18;-4.30;99.90
21778;DHT22;11050;52.222;20.916;2022-11-20T04:13:54;-4.30;99.90
21778;DHT22;11050;52.222;20.916;2022-11-20T04:16:22;-4.30;99.90
21778;DHT22;11050;52.222;20.916;2022-11-20T04:18:54;-4.40;99.90
21778;DHT22;11050;52.222;20.916;2022-11-20T04:21:21;-4.40;99.90
21778;DHT22;11050;52.222;20.916;2022-11-20T04:23:48;-4.40;99.90
21778;DHT22;11050;52.222;20.916;2022-11-20T04:26:15;-4.50;99.90
21778;DHT22;11050;52.222;20.916;2022-11-20T04:28:40;-4.50;99.90
21778;DHT22;11050;52.222;20.916;2022-11-20T04:31:12;-4.50;99.90
21778;DHT22;11050;52.222;20.916;2022-11-20T04:33:40;-4.60;99.90
21778;DHT22;11050;52.222;20.916;2022-11-20T04:36:11;-4.60;99.90
21778;DHT22;11050;52.222;20.916;2022-11-20T04:38:39;-4.60;99.90
21778;DHT22;11050;52.222;20.916;2022-11-20T04:41:07;-4.60;99.90
21778;DHT22;11050;52.222;20.916;2022-11-20T04:43:35;-4.70;99.90
21778;DHT22;11050;52.222;20.916;2022-11-20T04:46:01;-4.60;99.90
21778;DHT22;11050;52.222;20.916;2022-11-20T04:48:28;-4.70;99.90
21778;DHT22;11050;52.222;20.916;2022-11-20T04:50:55;-4.70;99.90
21778;DHT22;11050;52.222;20.916;2022-11-20T04:53:21;-4.80;99.90
21778;DHT22;11050;52.222;20.916;2022-11-20T04:55:48;-4.80;99.90
21778;DHT22;11050;52.222;20.916;2022-11-20T04:58:14;-4.80;99.90
21778;DHT22;11050;52.222;20.916;2022-11-20T05:00:41;-4.90;99.90
21778;DHT22;11050;52.222;20.916;2022-11-20T05:03:07;-4.90;99.90
21778;DHT22;11050;52.222;20.916;2022-11-20T05:05:36;-4.90;99.90
21778;DHT22;11050;52.222;20.916;2022-11-20T05:08:02;-4.90;99.90
21778;DHT22;11050;52.222;20.916;2022-11-20T05:10:28;-5.00;99.90
21778;DHT22;11050;52.222;20.916;2022-11-20T05:12:54;-5.00;99.90
21778;DHT22;11050;52.222;20.916;2022-11-20T05:15:19;-5.00;99.90
21778;DHT22;11050;52.222;20.916;2022-11-20T05:17:49;-5.00;99.90
21778;DHT22;11050;52.222;20.916;2022-11-20T05:20:15;-5.00;99.90
21778;DHT22;11050;52.222;20.916;2022-11-20T05:22:42;-5.10;99.90
21778;DHT22;11050;52.222;20.916;2022-11-20T05:25:08;-5.00;99.90
21778;DHT22;11050;52.222;20.916;2022-11-20T05:27:35;-5.10;99.90
21778;DHT22;11050;52.222;20.916;2022-11-20T05:30:00;-5.10;99.90
21778;DHT22;11050;52.222;20.916;2022-11-20T05:32:26;-5.10;99.90
21778;DHT22;11050;52.222;20.916;2022-11-20T05:34:52;-5.10;99.90
21778;DHT22;11050;52.222;20.916;2022-11-20T05:37:18;-5.20;99.90
21778;DHT22;11050;52.222;20.916;2022-11-20T05:39:44;-5.20;99.90
21778;DHT22;11050;52.222;20.916;2022-11-20T05:42:10;-5.20;99.90
21778;DHT22;11050;52.222;20.916;2022-11-20T05:44:54;-5.20;99.90
21778;DHT22;11050;52.222;20.916;2022-11-20T05:47:20;-5.20;99.90
21778;DHT22;11050;52.222;20.916;2022-11-20T05:49:45;-5.30;99.90
21778;DHT22;11050;52.222;20.916;2022-11-20T05:52:11;-5.30;99.90
21778;DHT22;11050;52.222;20.916;2022-11-20T05:54:37;-5.30;99.90
21778;DHT22;11050;52.222;20.916;2022-11-20T05:57:03;-5.30;99.90
21778;DHT22;11050;52.222;20.916;2022-11-20T05:59:29;-5.30;99.90
21778;DHT22;11050;52.222;20.916;2022-11-20T06:01:54;-5.30;99.90
21778;DHT22;11050;52.222;20.916;2022-11-20T06:04:20;-5.40;99.90
21778;DHT22;11050;52.222;20.916;2022-11-20T06:06:46;-5.40;99.90
21778;DHT22;11050;52.222;20.916;2022-11-20T06:09:12;-5.40;99.90
21778;DHT22;11050;52.222;20.916;2022-11-20T06:11:38;-5.40;99.90
21778;DHT22;11050;52.222;20.916;2022-11-20T06:14:03;-5.40;99.90
21778;DHT22;11050;52.222;20.916;2022-11-20T06:16:29;-5.40;99.90
21778;DHT22;11050;52.222;20.916;2022-11-20T06:18:55;-5.40;99.90
21778;DHT22;11050;52.222;20.916;2022-11-20T06:21:22;-5.40;99.90
21778;DHT22;11050;52.222;20.916;2022-11-20T06:23:49;-5.40;99.90
21778;DHT22;11050;52.222;20.916;2022-11-20T06:26:21;-5.40;99.90
21778;DHT22;11050;52.222;20.916;2022-11-20T06:28:49;-5.40;99.90
21778;DHT22;11050;52.222;20.916;2022-11-20T06:31:17;-5.40;99.90
21778;DHT22;11050;52.222;20.916;2022-11-20T06:33:46;-5.40;99.90
21778;DHT22;11050;52.222;20.916;2022-11-20T06:36:15;-5.40;99.90
21778;DHT22;11050;52.222;20.916;2022-11-20T06:38:42;-5.40;99.90
21778;DHT22;11050;52.222;20.916;2022-11-20T06:41:14;-5.30;99.90
21778;DHT22;11050;52.222;20.916;2022-11-20T06:43:42;-5.30;99.90
21778;DHT22;11050;52.222;20.916;2022-11-20T06:46:10;-5.30;99.90
21778;DHT22;11050;52.222;20.916;2022-11-20T06:48:37;-5.30;99.90
21778;DHT22;11050;52.222;20.916;2022-11-20T06:51:04;-5.20;99.90
21778;DHT22;11050;52.222;20.916;2022-11-20T06:53:32;-5.20;99.90
21778;DHT22;11050;52.222;20.916;2022-11-20T06:55:58;-5.20;99.90
21778;DHT22;11050;52.222;20.916;2022-11-20T06:58:27;-5.20;99.90
21778;DHT22;11050;52.222;20.916;2022-11-20T07:01:15;-5.10;99.90
21778;DHT22;11050;52.222;20.916;2022-11-20T07:03:42;-5.10;99.90
21778;DHT22;11050;52.222;20.916;2022-11-20T07:06:08;-5.10;99.90
21778;DHT22;11050;52.222;20.916;2022-11-20T07:08:35;-5.00;99.90
21778;DHT22;11050;52.222;20.916;2022-11-20T07:11:03;-5.00;99.90
21778;DHT22;11050;52.222;20.916;2022-11-20T07:13:30;-5.00;99.90
21778;DHT22;11050;52.222;20.916;2022-11-20T07:16:02;-5.00;99.90
21778;DHT22;11050;52.222;20.916;2022-11-20T07:18:29;-4.90;99.90
21778;DHT22;11050;52.222;20.916;2022-11-20T07:20:56;-4.90;99.90
21778;DHT22;11050;52.222;20.916;2022-11-20T07:23:21;-4.90;99.90
21778;DHT22;11050;52.222;20.916;2022-11-20T07:25:47;-4.80;99.90
21778;DHT22;11050;52.222;20.916;2022-11-20T07:28:13;-4.80;99.90
21778;DHT22;11050;52.222;20.916;2022-11-20T07:30:39;-4.70;99.90
21778;DHT22;11050;52.222;20.916;2022-11-20T07:33:05;-4.70;99.90
21778;DHT22;11050;52.222;20.916;2022-11-20T07:35:30;-4.70;99.90
21778;DHT22;11050;52.222;20.916;2022-11-20T07:37:56;-4.60;99.90
21778;DHT22;11050;52.222;20.916;2022-11-20T07:40:22;-4.60;99.90
21778;DHT22;11050;52.222;20.916;2022-11-20T07:42:49;-4.50;99.90
21778;DHT22;11050;52.222;20.916;2022-11-20T07:45:20;-4.50;99.90
21778;DHT22;11050;52.222;20.916;2022-11-20T07:47:47;-4.40;99.90
21778;DHT22;11050;52.222;20.916;2022-11-20T07:50:13;-4.30;99.90
21778;DHT22;11050;52.222;20.916;2022-11-20T07:52:39;-4.30;99.90
21778;DHT22;11050;52.222;20.916;2022-11-20T07:55:06;-4.30;99.90
21778;DHT22;11050;52.222;20.916;2022-11-20T07:57:33;-4.20;99.90
21778;DHT22;11050;52.222;20.916;2022-11-20T07:59:59;-4.10;99.90
21778;DHT22;11050;52.222;20.916;2022-11-20T08:02:36;-4.10;99.90
21778;DHT22;11050;52.222;20.916;2022-11-20T08:05:06;-4.00;99.90
21778;DHT22;11050;52.222;20.916;2022-11-20T08:07:40;-4.00;99.90
21778;DHT22;11050;52.222;20.916;2022-11-20T08:10:09;-3.90;99.90
21778;DHT22;11050;52.222;20.916;2022-11-20T08:12:42;-3.80;99.90
21778;DHT22;11050;52.222;20.916;2022-11-20T08:15:28;-3.70;99.90
21778;DHT22;11050;52.222;20.916;2022-11-20T08:18:00;-3.60;99.90
21778;DHT22;11050;52.222;20.916;2022-11-20T08:20:30;-3.50;99.90
21778;DHT22;11050;52.222;20.916;2022-11-20T08:23:04;-3.40;99.90
21778;DHT22;11050;52.222;20.916;2022-11-20T08:25:32;-3.30;99.90
21778;DHT22;11050;52.222;20.916;2022-11-20T08:28:01;-3.10;99.90
21778;DHT22;11050;52.222;20.916;2022-11-20T08:30:29;-3.00;99.90
21778;DHT22;11050;52.222;20.916;2022-11-20T08:33:01;-2.90;99.90
21778;DHT22;11050;52.222;20.916;2022-11-20T08:35:36;-2.80;99.90
21778;DHT22;11050;52.222;20.916;2022-11-20T08:38:06;-2.70;99.90
21778;DHT22;11050;52.222;20.916;2022-11-20T08:40:33;-2.50;99.90
21778;DHT22;11050;52.222;20.916;2022-11-20T08:42:59;-2.40;99.90
21778;DHT22;11050;52.222;20.916;2022-11-20T08:45:26;-2.30;99.90
21778;DHT22;11050;52.222;20.916;2022-11-20T08:47:52;-2.20;99.90
21778;DHT22;11050;52.222;20.916;2022-11-20T08:50:18;-2.10;99.90
21778;DHT22;11050;52.222;20.916;2022-11-20T08:52:44;-2.00;99.90
21778;DHT22;11050;52.222;20.916;2022-11-20T08:55:10;-1.80;99.90
21778;DHT22;11050;52.222;20.916;2022-11-20T08:57:36;-1.70;99.90
21778;DHT22;11050;52.222;20.916;2022-11-20T09:00:07;-1.60;99.90
21778;DHT22;11050;52.222;20.916;2022-11-20T09:02:33;-1.50;99.90
21778;DHT22;11050;52.222;20.916;2022-11-20T09:04:59;-1.40;99.90
21778;DHT22;11050;52.222;20.916;2022-11-20T09:07:28;-1.30;99.90
21778;DHT22;11050;52.222;20.916;2022-11-20T09:09:54;-1.20;99.90
21778;DHT22;11050;52.222;20.916;2022-11-20T09:12:20;-1.10;99.90
21778;DHT22;11050;52.222;20.916;2022-11-20T09:14:46;-1.00;99.90
21778;DHT22;11050;52.222;20.916;2022-11-20T09:17:11;-0.90;99.90
21778;DHT22;11050;52.222;20.916;2022-11-20T09:19:40;-0.90;99.90
21778;DHT22;11050;52.222;20.916;2022-11-20T09:22:06;-0.90;99.90
21778;DHT22;11050;52.222;20.916;2022-11-20T09:24:32;-0.80;99.90
21778;DHT22;11050;52.222;20.916;2022-11-20T09:27:01;-0.80;99.90
21778;DHT22;11050;52.222;20.916;2022-11-20T09:29:29;-0.70;99.90
21778;DHT22;11050;52.222;20.916;2022-11-20T09:31:54;-0.70;99.90
21778;DHT22;11050;52.222;20.916;2022-11-20T09:34:20;-0.60;99.90
21778;DHT22;11050;52.222;20.916;2022-11-20T09:36:46;-0.60;99.90
21778;DHT22;11050;52.222;20.916;2022-11-20T09:39:12;-0.50;99.90
21778;DHT22;11050;52.222;20.916;2022-11-20T09:44:49;-0.40;99.90
21778;DHT22;11050;52.222;20.916;2022-11-20T09:47:37;-0.30;99.90
21778;DHT22;11050;52.222;20.916;2022-11-20T09:50:36;-0.20;99.90
21778;DHT22;11050;52.222;20.916;2022-11-20T09:55:38;-0.10;99.90
21778;DHT22;11050;52.222;20.916;2022-11-20T09:58:33;0.00;99.90
21778;DHT22;11050;52.222;20.916;2022-11-20T10:01:19;0.00;99.90
21778;DHT22;11050;52.222;20.916;2022-11-20T10:07:13;0.20;99.90
21778;DHT22;11050;52.222;20.916;2022-11-20T10:09:55;0.30;99.90
21778;DHT22;11050;52.222;20.916;2022-11-20T10:12:37;0.40;99.90
21778;DHT22;11050;52.222;20.916;2022-11-20T10:15:33;0.50;99.90
21778;DHT22;11050;52.222;20.916;2022-11-20T10:18:16;0.60;99.90
21778;DHT22;11050;52.222;20.916;2022-11-20T10:21:11;0.70;99.90
21778;DHT22;11050;52.222;20.916;2022-11-20T10:30:12;0.90;99.90
21778;DHT22;11050;52.222;20.916;2022-11-20T10:32:44;1.00;99.90
21778;DHT22;11050;52.222;20.916;2022-11-20T10:35:21;1.00;99.90
21778;DHT22;11050;52.222;20.916;2022-11-20T10:37:58;1.10;99.90
21778;DHT22;11050;52.222;20.916;2022-11-20T10:40:47;1.20;99.90
21778;DHT22;11050;52.222;20.916;2022-11-20T10:43:29;1.30;99.90
21778;DHT22;11050;52.222;20.916;2022-11-20T10:46:08;1.40;99.90
21778;DHT22;11050;52.222;20.916;2022-11-20T10:48:41;1.60;99.90
21778;DHT22;11050;52.222;20.916;2022-11-20T10:56:34;2.20;99.90
21778;DHT22;11050;52.222;20.916;2022-11-20T10:59:18;2.40;99.90
21778;DHT22;11050;52.222;20.916;2022-11-20T11:02:23;2.60;99.90
21778;DHT22;11050;52.222;20.916;2022-11-20T11:04:55;3.00;99.90
21778;DHT22;11050;52.222;20.916;2022-11-20T11:07:29;3.20;99.90
21778;DHT22;11050;52.222;20.916;2022-11-20T11:10:00;3.50;99.90
21778;DHT22;11050;52.222;20.916;2022-11-20T11:12:28;3.70;99.90
21778;DHT22;11050;52.222;20.916;2022-11-20T11:14:55;3.90;99.90
21778;DHT22;11050;52.222;20.916;2022-11-20T11:17:30;4.20;99.90
21778;DHT22;11050;52.222;20.916;2022-11-20T11:22:44;4.50;99.90
21778;DHT22;11050;52.222;20.916;2022-11-20T11:25:25;4.60;98.90
21778;DHT22;11050;52.222;20.916;2022-11-20T11:27:53;4.70;98.00
21778;DHT22;11050;52.222;20.916;2022-11-20T11:30:28;4.70;97.40
21778;DHT22;11050;52.222;20.916;2022-11-20T11:33:08;4.80;97.20
21778;DHT22;11050;52.222;20.916;2022-11-20T11:35:47;5.00;96.70
21778;DHT22;11050;52.222;20.916;2022-11-20T11:38:17;5.30;96.50
21778;DHT22;11050;52.222;20.916;2022-11-20T11:40:47;5.50;94.50
21778;DHT22;11050;52.222;20.916;2022-11-20T11:43:21;5.80;94.40
21778;DHT22;11050;52.222;20.916;2022-11-20T11:46:33;5.90;92.30
21778;DHT22;11050;52.222;20.916;2022-11-20T12:02:39;6.70;87.50
21778;DHT22;11050;52.222;20.916;2022-11-20T12:05:21;6.90;86.10
21778;DHT22;11050;52.222;20.916;2022-11-20T12:16:14;7.30;81.10
21778;DHT22;11050;52.222;20.916;2022-11-20T12:18:43;7.30;80.40
21778;DHT22;11050;52.222;20.916;2022-11-20T12:21:26;7.50;81.00
21778;DHT22;11050;52.222;20.916;2022-11-20T12:30:15;7.80;78.40
21778;DHT22;11050;52.222;20.916;2022-11-20T12:38:34;7.90;75.50
21778;DHT22;11050;52.222;20.916;2022-11-20T12:59:37;8.60;70.20
21778;DHT22;11050;52.222;20.916;2022-11-20T13:02:37;8.60;69.70
21778;DHT22;11050;52.222;20.916;2022-11-20T13:07:53;7.80;70.00
21778;DHT22;11050;52.222;20.916;2022-11-20T13:10:47;7.40;71.40
21778;DHT22;11050;52.222;20.916;2022-11-20T13:16:19;6.70;73.70
21778;DHT22;11050;52.222;20.916;2022-11-20T13:18:52;6.40;74.10
21778;DHT22;11050;52.222;20.916;2022-11-20T13:21:35;6.20;75.10
21778;DHT22;11050;52.222;20.916;2022-11-20T13:29:45;5.50;77.20
21778;DHT22;11050;52.222;20.916;2022-11-20T13:32:18;5.40;77.90
21778;DHT22;11050;52.222;20.916;2022-11-20T13:34:56;5.20;78.80
21778;DHT22;11050;52.222;20.916;2022-11-20T13:37:37;5.20;79.80
21778;DHT22;11050;52.222;20.916;2022-11-20T13:42:40;5.50;79.80
21778;DHT22;11050;52.222;20.916;2022-11-20T13:45:25;5.50;79.20
21778;DHT22;11050;52.222;20.916;2022-11-20T13:47:54;5.40;79.50
21778;DHT22;11050;52.222;20.916;2022-11-20T13:54:29;5.00;80.40
21778;DHT22;11050;52.222;20.916;2022-11-20T13:59:13;4.30;81.80
21778;DHT22;11050;52.222;20.916;2022-11-20T14:01:46;4.00;82.90
21778;DHT22;11050;52.222;20.916;2022-11-20T14:04:31;3.70;84.30
21778;DHT22;11050;52.222;20.916;2022-11-20T14:07:01;3.50;85.50
21778;DHT22;11050;52.222;20.916;2022-11-20T14:09:32;3.30;86.50
21778;DHT22;11050;52.222;20.916;2022-11-20T14:12:00;3.10;87.10
21778;DHT22;11050;52.222;20.916;2022-11-20T14:14:29;2.90;88.10
21778;DHT22;11050;52.222;20.916;2022-11-20T14:19:55;2.60;90.00
21778;DHT22;11050;52.222;20.916;2022-11-20T14:22:27;2.40;90.40
21778;DHT22;11050;52.222;20.916;2022-11-20T14:27:47;2.40;91.20
21778;DHT22;11050;52.222;20.916;2022-11-20T14:30:26;2.40;91.40
21778;DHT22;11050;52.222;20.916;2022-11-20T14:33:00;2.40;91.50
21778;DHT22;11050;52.222;20.916;2022-11-20T14:35:30;2.40;91.60
21778;DHT22;11050;52.222;20.916;2022-11-20T14:38:02;2.30;91.70
21778;DHT22;11050;52.222;20.916;2022-11-20T14:40:32;2.30;91.90
21778;DHT22;11050;52.222;20.916;2022-11-20T14:43:19;2.10;92.30
21778;DHT22;11050;52.222;20.916;2022-11-20T14:46:08;2.00;92.50
21778;DHT22;11050;52.222;20.916;2022-11-20T14:48:45;1.80;93.00
21778;DHT22;11050;52.222;20.916;2022-11-20T14:54:17;1.60;94.00
21778;DHT22;11050;52.222;20.916;2022-11-20T14:57:02;1.40;94.30
21778;DHT22;11050;52.222;20.916;2022-11-20T14:59:31;1.30;94.90
21778;DHT22;11050;52.222;20.916;2022-11-20T15:02:02;1.20;95.40
21778;DHT22;11050;52.222;20.916;2022-11-20T15:04:31;1.10;95.90
21778;DHT22;11050;52.222;20.916;2022-11-20T15:06:59;1.00;96.80
21778;DHT22;11050;52.222;20.916;2022-11-20T15:09:25;0.90;97.50
21778;DHT22;11050;52.222;20.916;2022-11-20T15:12:02;0.90;98.70
21778;DHT22;11050;52.222;20.916;2022-11-20T15:14:30;0.80;99.90
21778;DHT22;11050;52.222;20.916;2022-11-20T15:16:59;0.70;99.90
21778;DHT22;11050;52.222;20.916;2022-11-20T15:19:26;0.60;99.90
21778;DHT22;11050;52.222;20.916;2022-11-20T15:21:52;0.50;99.90
21778;DHT22;11050;52.222;20.916;2022-11-20T15:24:18;0.40;99.90
21778;DHT22;11050;52.222;20.916;2022-11-20T15:26:45;0.40;99.90
21778;DHT22;11050;52.222;20.916;2022-11-20T15:29:12;0.30;99.90
21778;DHT22;11050;52.222;20.916;2022-11-20T15:31:40;0.20;99.90
21778;DHT22;11050;52.222;20.916;2022-11-20T15:34:12;0.20;99.90
21778;DHT22;11050;52.222;20.916;2022-11-20T15:36:40;0.10;99.90
21778;DHT22;11050;52.222;20.916;2022-11-20T15:39:08;0.00;99.90
21778;DHT22;11050;52.222;20.916;2022-11-20T15:41:35;0.00;99.90
21778;DHT22;11050;52.222;20.916;2022-11-20T15:44:02;-0.20;99.90
21778;DHT22;11050;52.222;20.916;2022-11-20T15:46:32;-0.20;99.90
21778;DHT22;11050;52.222;20.916;2022-11-20T15:49:04;-0.30;99.90
21778;DHT22;11050;52.222;20.916;2022-11-20T15:51:33;-0.50;99.90
21778;DHT22;11050;52.222;20.916;2022-11-20T15:54:02;-0.60;99.90
21778;DHT22;11050;52.222;20.916;2022-11-20T15:56:35;-0.70;99.90
21778;DHT22;11050;52.222;20.916;2022-11-20T15:59:02;-0.70;99.90
21778;DHT22;11050;52.222;20.916;2022-11-20T16:01:29;-0.80;99.90
21778;DHT22;11050;52.222;20.916;2022-11-20T16:03:54;-0.90;99.90
21778;DHT22;11050;52.222;20.916;2022-11-20T16:06:20;-1.00;99.90
21778;DHT22;11050;52.222;20.916;2022-11-20T16:08:46;-1.10;99.90
21778;DHT22;11050;52.222;20.916;2022-11-20T16:11:16;-1.10;99.90
21778;DHT22;11050;52.222;20.916;2022-11-20T16:13:43;-1.20;99.90
21778;DHT22;11050;52.222;20.916;2022-11-20T16:16:36;-1.20;99.90
21778;DHT22;11050;52.222;20.916;2022-11-20T16:19:04;-1.30;99.90
21778;DHT22;11050;52.222;20.916;2022-11-20T16:21:30;-1.40;99.90
21778;DHT22;11050;52.222;20.916;2022-11-20T16:24:01;-1.40;99.90
21778;DHT22;11050;52.222;20.916;2022-11-20T16:26:29;-1.50;99.90
21778;DHT22;11050;52.222;20.916;2022-11-20T16:28:55;-1.50;99.90
21778;DHT22;11050;52.222;20.916;2022-11-20T16:31:22;-1.60;99.90
21778;DHT22;11050;52.222;20.916;2022-11-20T16:33:56;-1.60;99.90
21778;DHT22;11050;52.222;20.916;2022-11-20T16:36:25;-1.70;99.90
21778;DHT22;11050;52.222;20.916;2022-11-20T16:38:57;-1.70;99.90
21778;DHT22;11050;52.222;20.916;2022-11-20T16:41:30;-1.80;99.90
21778;DHT22;11050;52.222;20.916;2022-11-20T16:43:58;-1.80;99.90
21778;DHT22;11050;52.222;20.916;2022-11-20T16:46:27;-1.80;99.90
21778;DHT22;11050;52.222;20.916;2022-11-20T16:48:56;-1.90;99.90
21778;DHT22;11050;52.222;20.916;2022-11-20T16:51:23;-1.90;99.90
21778;DHT22;11050;52.222;20.916;2022-11-20T16:53:50;-1.90;99.90
21778;DHT22;11050;52.222;20.916;2022-11-20T16:56:20;-1.90;99.90
21778;DHT22;11050;52.222;20.916;2022-11-20T16:58:48;-1.90;99.90
21778;DHT22;11050;52.222;20.916;2022-11-20T17:01:19;-2.00;99.90
21778;DHT22;11050;52.222;20.916;2022-11-20T17:03:54;-2.00;99.90
21778;DHT22;11050;52.222;20.916;2022-11-20T17:06:28;-1.90;99.90
21778;DHT22;11050;52.222;20.916;2022-11-20T17:08:57;-1.90;99.90
21778;DHT22;11050;52.222;20.916;2022-11-20T17:11:23;-1.90;99.90
21778;DHT22;11050;52.222;20.916;2022-11-20T17:13:50;-1.90;99.90
21778;DHT22;11050;52.222;20.916;2022-11-20T17:16:18;-1.90;99.90
21778;DHT22;11050;52.222;20.916;2022-11-20T17:18:46;-1.90;99.90
21778;DHT22;11050;52.222;20.916;2022-11-20T17:21:15;-1.90;99.90
21778;DHT22;11050;52.222;20.916;2022-11-20T17:23:43;-1.80;99.90
21778;DHT22;11050;52.222;20.916;2022-11-20T17:26:13;-1.80;99.90
21778;DHT22;11050;52.222;20.916;2022-11-20T17:28:52;-1.80;99.90